Time;durP1;ratioP1;P1;durP2;ratioP2;P2;SDS_P1;SDS_P2;PMS_P1;PMS_P2;Temp;Humidity;BMP_temperature;BMP_pressure;BME280_temperature;BME280_humidity;BME280_pressure;Samples;Min_cycle;Max_cycle;Signal;HPM_P1;HPM_P2
2023/08/20 00:00:29;;;;;;;11.70;10.13;;;24.60;99.90;;;;;;5020093;28;20176;-71
2023/08/20 00:03:21;;;;;;;10.87;10.03;;;24.60;99.90;;;;;;5015944;28;20417;-70
2023/08/20 00:05:47;;;;;;;11.40;10.50;;;24.60;99.90;;;;;;5013798;28;20180;-71
2023/08/20 00:08:12;;;;;;;12.80;9.47;;;24.50;99.90;;;;;;5015416;28;20435;-72
2023/08/20 00:10:38;;;;;;;10.30;9.30;;;24.60;99.90;;;;;;5020809;28;20172;-71
2023/08/20 00:13:04;;;;;;;10.93;9.80;;;24.70;99.90;;;;;;5016015;28;20172;-71
2023/08/20 00:15:30;;;;;;;10.57;9.47;;;24.70;99.90;;;;;;5015957;28;20619;-71
2023/08/20 00:17:56;;;;;;;11.87;10.70;;;24.80;99.90;;;;;;5015816;28;20258;-72
2023/08/20 00:20:22;;;;;;;10.43;9.37;;;24.80;99.90;;;;;;5028932;28;20398;-70
2023/08/20 00:22:48;;;;;;;10.33;9.40;;;24.90;99.90;;;;;;5034861;28;20833;-72
2023/08/20 00:25:15;;;;;;;9.83;9.10;;;25.00;99.90;;;;;;5035171;28;20203;-70
2023/08/20 00:27:42;;;;;;;10.50;9.60;;;25.00;99.90;;;;;;5031015;28;20407;-72
2023/08/20 00:30:08;;;;;;;10.90;9.90;;;25.10;99.90;;;;;;5026304;28;20437;-72
2023/08/20 00:32:34;;;;;;;11.17;10.07;;;25.00;99.90;;;;;;5035147;28;20402;-71
2023/08/20 00:35:00;;;;;;;10.40;9.30;;;25.00;99.90;;;;;;5035038;28;20453;-71
2023/08/20 00:37:26;;;;;;;10.97;9.87;;;24.90;99.90;;;;;;5034931;28;20406;-71
2023/08/20 00:39:51;;;;;;;11.87;10.67;;;24.90;99.90;;;;;;5026046;28;21034;-71
2023/08/20 00:42:17;;;;;;;11.50;10.47;;;24.80;99.90;;;;;;5016304;28;20647;-72
2023/08/20 00:44:45;;;;;;;11.30;10.30;;;24.80;99.90;;;;;;5015327;28;20210;-70
2023/08/20 00:47:12;;;;;;;10.40;9.47;;;24.80;99.90;;;;;;5015104;28;20179;-72
2023/08/20 00:49:39;;;;;;;10.40;9.33;;;24.90;99.90;;;;;;5021913;28;20406;-72
2023/08/20 00:52:08;;;;;;;10.37;9.47;;;24.90;99.90;;;;;;5034805;28;20496;-72
2023/08/20 00:54:34;;;;;;;10.73;9.67;;;24.80;99.90;;;;;;5033645;28;20943;-72
2023/08/20 00:57:01;;;;;;;12.70;10.90;;;24.70;99.90;;;;;;5034694;28;20410;-71
2023/08/20 00:59:26;;;;;;;11.67;10.67;;;24.70;99.90;;;;;;5029927;28;20466;-71
2023/08/20 01:01:53;;;;;;;11.03;9.93;;;24.60;99.90;;;;;;5015558;28;20399;-70
2023/08/20 01:04:19;;;;;;;11.67;10.70;;;24.40;99.90;;;;;;5014761;28;20188;-71
2023/08/20 01:07:11;;;;;;;11.50;10.37;;;24.30;99.90;;;;;;5014952;28;20432;-71
2023/08/20 01:09:55;;;;;;;10.57;9.63;;;24.40;99.90;;;;;;5020370;28;20394;-71
2023/08/20 01:12:23;;;;;;;11.13;9.87;;;24.40;99.90;;;;;;5034729;28;20749;-70
2023/08/20 01:14:49;;;;;;;11.67;10.60;;;24.30;99.90;;;;;;5034149;28;20430;-71
2023/08/20 01:17:14;;;;;;;11.20;10.30;;;24.40;99.90;;;;;;5027948;28;20908;-71
2023/08/20 01:19:41;;;;;;;14.93;10.00;;;24.40;99.90;;;;;;5020849;28;20238;-71
2023/08/20 01:22:58;;;;;;;11.57;10.57;;;24.40;99.90;;;;;;5034163;28;20513;-71
2023/08/20 01:25:53;;;;;;;10.80;9.87;;;24.40;99.90;;;;;;5032562;28;20802;-71
2023/08/20 01:28:28;;;;;;;10.30;9.40;;;24.50;99.90;;;;;;5034287;28;20824;-72
2023/08/20 01:30:56;;;;;;;11.57;10.57;;;24.40;99.90;;;;;;5017687;28;20428;-72
2023/08/20 01:33:24;;;;;;;11.70;10.60;;;24.30;99.90;;;;;;5014470;28;20494;-71
2023/08/20 01:35:50;;;;;;;12.00;10.90;;;24.50;99.90;;;;;;5016144;28;20403;-71
2023/08/20 01:38:16;;;;;;;10.83;9.80;;;24.50;99.90;;;;;;5013588;28;20505;-71
2023/08/20 01:40:41;;;;;;;12.57;11.57;;;24.50;99.90;;;;;;5028718;28;20441;-72
2023/08/20 01:43:07;;;;;;;11.43;10.27;;;24.50;99.90;;;;;;5033773;28;20168;-71
2023/08/20 01:45:32;;;;;;;12.53;10.67;;;24.40;99.90;;;;;;5033645;28;20262;-72
2023/08/20 01:47:58;;;;;;;11.47;10.37;;;24.30;99.90;;;;;;5020959;28;20540;-70
2023/08/20 01:50:24;;;;;;;11.03;10.00;;;24.30;99.90;;;;;;5025967;28;20191;-71
2023/08/20 01:52:49;;;;;;;11.90;10.70;;;24.20;99.90;;;;;;5033218;28;20167;-71
2023/08/20 01:55:15;;;;;;;12.10;10.97;;;24.20;99.90;;;;;;5033567;28;20686;-71
2023/08/20 01:57:40;;;;;;;12.70;11.23;;;24.20;99.90;;;;;;5033892;28;20638;-71
2023/08/20 02:00:07;;;;;;;11.97;10.87;;;24.20;99.90;;;;;;5023996;28;20188;-71
2023/08/20 02:02:32;;;;;;;10.80;9.90;;;24.10;99.90;;;;;;5013971;28;20168;-71
2023/08/20 02:04:58;;;;;;;11.70;10.50;;;24.20;99.90;;;;;;5012659;28;20929;-71
2023/08/20 02:07:23;;;;;;;11.93;10.83;;;24.30;99.90;;;;;;5013542;28;20206;-71
2023/08/20 02:09:49;;;;;;;11.10;10.13;;;24.30;99.90;;;;;;5017325;28;20654;-72
2023/08/20 02:12:15;;;;;;;10.83;9.73;;;24.40;99.90;;;;;;5013692;28;20706;-71
2023/08/20 02:14:40;;;;;;;10.97;9.90;;;24.40;99.90;;;;;;5013677;28;20200;-71
2023/08/20 02:17:07;;;;;;;11.13;10.23;;;24.30;99.90;;;;;;5013338;28;20175;-71
2023/08/20 02:19:33;;;;;;;11.77;10.87;;;24.30;99.90;;;;;;5018180;28;20221;-72
2023/08/20 02:21:58;;;;;;;11.03;10.10;;;24.30;99.90;;;;;;5033062;28;20402;-71
2023/08/20 02:24:24;;;;;;;11.77;10.67;;;24.20;99.90;;;;;;5033141;28;20203;-70
2023/08/20 02:26:49;;;;;;;11.30;10.40;;;24.20;99.90;;;;;;5025698;28;20167;-71
2023/08/20 02:29:15;;;;;;;13.70;12.50;;;24.20;99.90;;;;;;5015506;28;20231;-71
2023/08/20 02:31:40;;;;;;;12.13;11.07;;;24.20;99.90;;;;;;5033172;28;20285;-71
2023/08/20 02:34:06;;;;;;;12.60;11.40;;;24.10;99.90;;;;;;5033100;28;20248;-71
2023/08/20 02:36:32;;;;;;;12.30;11.10;;;24.00;99.90;;;;;;5033084;28;20174;-71
2023/08/20 02:38:57;;;;;;;12.30;11.20;;;23.90;99.90;;;;;;5032438;28;20191;-71
2023/08/20 02:41:23;;;;;;;12.03;11.03;;;23.80;99.90;;;;;;5013345;28;20202;-72
2023/08/20 02:43:48;;;;;;;11.57;10.57;;;23.80;99.90;;;;;;5011631;28;20191;-71
2023/08/20 02:46:14;;;;;;;13.93;12.13;;;23.80;99.90;;;;;;5013142;28;20215;-71
2023/08/20 02:48:40;;;;;;;13.63;12.60;;;23.80;99.90;;;;;;5012733;28;20510;-72
2023/08/20 02:51:05;;;;;;;12.23;11.03;;;23.80;99.90;;;;;;5029853;28;20185;-71
2023/08/20 02:53:31;;;;;;;12.60;11.50;;;23.80;99.90;;;;;;5032513;28;20193;-72
2023/08/20 02:55:56;;;;;;;12.57;11.27;;;23.90;99.90;;;;;;5032828;28;20207;-72
2023/08/20 02:58:22;;;;;;;12.43;11.43;;;23.80;99.90;;;;;;5032794;28;20191;-72
2023/08/20 03:00:48;;;;;;;13.87;12.40;;;23.80;99.90;;;;;;5018217;28;20176;-72
2023/08/20 03:03:13;;;;;;;13.83;12.50;;;23.90;99.90;;;;;;5012673;28;20697;-71
2023/08/20 03:05:39;;;;;;;12.50;11.50;;;23.90;99.90;;;;;;5012619;28;20206;-71
2023/08/20 03:08:06;;;;;;;12.43;11.43;;;23.80;99.90;;;;;;5012297;28;20253;-71
2023/08/20 03:10:32;;;;;;;13.47;12.07;;;23.80;99.90;;;;;;5024571;28;20171;-71
2023/08/20 03:13:01;;;;;;;12.23;11.23;;;23.80;99.90;;;;;;5032606;28;20398;-72
2023/08/20 03:15:28;;;;;;;13.30;12.10;;;23.80;99.90;;;;;;5031162;28;20430;-71
2023/08/20 03:17:54;;;;;;;12.20;11.20;;;23.70;99.90;;;;;;5020066;28;20896;-72
2023/08/20 03:20:19;;;;;;;13.60;12.30;;;23.70;99.90;;;;;;5022503;28;20453;-72
2023/08/20 03:22:45;;;;;;;13.80;12.60;;;23.70;99.90;;;;;;5032130;28;20194;-72
2023/08/20 03:25:10;;;;;;;13.20;12.00;;;23.60;99.90;;;;;;5031617;28;20685;-71
2023/08/20 03:27:36;;;;;;;16.00;12.30;;;23.60;99.90;;;;;;5032221;28;20167;-70
2023/08/20 03:30:03;;;;;;;14.60;13.23;;;23.60;99.90;;;;;;5024481;28;20172;-72
2023/08/20 03:32:28;;;;;;;13.10;11.90;;;23.60;99.90;;;;;;5014914;28;20179;-71
2023/08/20 03:34:55;;;;;;;12.30;11.30;;;23.60;99.90;;;;;;5012559;28;20510;-72
2023/08/20 03:37:22;;;;;;;12.67;11.37;;;23.60;99.90;;;;;;5012775;28;20606;-72
2023/08/20 03:39:47;;;;;;;12.37;11.40;;;23.70;99.90;;;;;;5017164;28;20561;-71
2023/08/20 03:42:13;;;;;;;13.33;12.17;;;23.70;99.90;;;;;;5032176;28;20509;-71
2023/08/20 03:44:39;;;;;;;12.97;11.97;;;23.70;99.90;;;;;;5031986;28;20186;-72
2023/08/20 03:47:04;;;;;;;11.60;10.60;;;23.70;99.90;;;;;;5026331;28;20658;-71
2023/08/20 03:49:30;;;;;;;12.57;11.40;;;23.60;99.90;;;;;;5015041;28;20178;-72
2023/08/20 03:51:55;;;;;;;12.00;10.93;;;23.50;99.90;;;;;;5031958;28;20684;-72
2023/08/20 03:54:21;;;;;;;14.90;13.63;;;23.40;99.90;;;;;;5031343;28;20198;-71
2023/08/20 03:56:46;;;;;;;13.23;12.13;;;23.30;99.90;;;;;;5032452;28;20163;-72
2023/08/20 03:59:12;;;;;;;13.50;12.40;;;23.40;99.90;;;;;;5031389;28;20335;-72
2023/08/20 04:01:38;;;;;;;12.97;11.87;;;23.40;99.90;;;;;;5012091;28;20171;-72
2023/08/20 04:04:04;;;;;;;12.90;11.80;;;23.40;99.90;;;;;;5012065;28;20184;-71
2023/08/20 04:06:29;;;;;;;13.10;11.93;;;23.40;99.90;;;;;;5023780;28;20172;-72
2023/08/20 04:08:55;;;;;;;13.57;12.47;;;23.40;99.90;;;;;;5031270;28;20414;-71
2023/08/20 04:11:20;;;;;;;14.03;12.63;;;23.30;99.90;;;;;;5014142;28;20180;-72
2023/08/20 04:13:46;;;;;;;14.43;12.93;;;23.30;99.90;;;;;;5011956;28;20184;-72
2023/08/20 04:16:12;;;;;;;12.60;11.10;;;23.40;99.90;;;;;;5012138;28;20199;-73
2023/08/20 04:18:38;;;;;;;12.27;11.17;;;23.40;99.90;;;;;;5011779;28;20192;-72
2023/08/20 04:21:03;;;;;;;11.90;10.87;;;23.40;99.90;;;;;;5027141;28;20469;-70
2023/08/20 04:23:29;;;;;;;14.67;13.30;;;23.40;99.90;;;;;;5030981;28;20512;-71
2023/08/20 04:25:54;;;;;;;13.20;12.00;;;23.30;99.90;;;;;;5032153;28;20164;-71
2023/08/20 04:28:20;;;;;;;13.70;12.60;;;23.30;99.90;;;;;;5032763;28;20172;-71
2023/08/20 04:30:45;;;;;;;18.97;13.20;;;23.20;99.90;;;;;;5022486;28;20172;-70
2023/08/20 04:33:11;;;;;;;13.00;11.90;;;23.10;99.90;;;;;;5015383;28;20229;-71
2023/08/20 04:35:36;;;;;;;13.40;12.30;;;23.20;99.90;;;;;;5014868;28;20188;-71
2023/08/20 04:38:02;;;;;;;13.53;12.23;;;23.10;99.90;;;;;;5015606;28;20172;-72
2023/08/20 04:40:28;;;;;;;12.23;11.23;;;23.30;99.90;;;;;;5025130;28;20647;-71
2023/08/20 04:42:54;;;;;;;12.40;11.17;;;23.30;99.90;;;;;;5035147;28;20460;-71
2023/08/20 04:45:19;;;;;;;12.07;10.97;;;23.30;99.90;;;;;;5035015;28;20268;-71
2023/08/20 04:47:46;;;;;;;13.27;12.07;;;23.30;99.90;;;;;;5024066;28;20172;-71
2023/08/20 04:50:11;;;;;;;13.53;12.40;;;23.30;99.90;;;;;;5022925;28;20599;-72
2023/08/20 04:52:37;;;;;;;13.17;12.17;;;23.40;99.90;;;;;;5034846;28;20492;-71
2023/08/20 04:55:03;;;;;;;12.90;11.70;;;23.40;99.90;;;;;;5034294;28;20704;-71
2023/08/20 04:57:29;;;;;;;12.27;11.17;;;23.40;99.90;;;;;;5035262;28;20538;-71
2023/08/20 04:59:54;;;;;;;12.57;11.30;;;23.50;99.90;;;;;;5029907;28;20546;-71
2023/08/20 05:02:20;;;;;;;12.60;11.40;;;23.50;99.90;;;;;;5015685;28;20168;-71
2023/08/20 05:04:45;;;;;;;12.17;10.97;;;23.50;99.90;;;;;;5014995;28;20192;-70
2023/08/20 05:07:11;;;;;;;14.03;12.73;;;23.50;99.90;;;;;;5014990;28;20218;-70
2023/08/20 05:09:37;;;;;;;12.83;11.77;;;23.50;99.90;;;;;;5017332;28;20673;-71
2023/08/20 05:12:03;;;;;;;11.30;10.10;;;23.50;99.90;;;;;;5034486;28;20179;-71
2023/08/20 05:14:29;;;;;;;14.33;13.00;;;23.60;99.90;;;;;;5034553;28;20194;-71
2023/08/20 05:16:55;;;;;;;12.10;10.80;;;23.60;99.90;;;;;;5030497;28;20479;-72
2023/08/20 05:19:20;;;;;;;11.10;10.10;;;23.60;99.90;;;;;;5014045;28;20572;-71
2023/08/20 05:21:46;;;;;;;11.27;10.23;;;23.60;99.90;;;;;;5033153;28;20172;-70
2023/08/20 05:24:11;;;;;;;14.97;13.67;;;23.70;99.90;;;;;;5034099;28;20203;-71
2023/08/20 05:26:37;;;;;;;14.57;13.27;;;23.60;99.90;;;;;;5034513;28;20270;-71
2023/08/20 05:29:03;;;;;;;13.27;12.23;;;23.50;99.90;;;;;;5031119;28;20167;-71
2023/08/20 05:31:28;;;;;;;13.97;12.83;;;23.40;99.90;;;;;;5016498;28;20222;-71
2023/08/20 05:33:54;;;;;;;12.30;11.20;;;23.40;99.90;;;;;;5014155;28;20188;-72
2023/08/20 05:36:19;;;;;;;12.23;11.13;;;23.40;99.90;;;;;;5014338;28;20168;-71
2023/08/20 05:38:45;;;;;;;12.80;11.70;;;23.40;99.90;;;;;;5013943;28;20258;-71
2023/08/20 05:41:10;;;;;;;11.93;10.93;;;23.50;99.90;;;;;;5029288;28;20172;-70
2023/08/20 05:43:36;;;;;;;13.50;11.90;;;23.70;99.90;;;;;;5034256;28;20206;-71
2023/08/20 05:46:02;;;;;;;12.43;11.37;;;23.90;99.90;;;;;;5034065;28;20653;-71
2023/08/20 05:48:28;;;;;;;12.03;11.03;;;24.00;99.90;;;;;;5023329;28;20531;-71
2023/08/20 05:50:56;;;;;;;12.53;11.23;;;24.20;99.90;;;;;;5026522;28;20951;-72
2023/08/20 05:53:24;;;;;;;14.73;13.50;;;24.30;99.90;;;;;;5033523;28;20413;-71
2023/08/20 05:55:49;;;;;;;12.70;11.47;;;24.10;99.90;;;;;;5033787;28;20402;-71
2023/08/20 05:58:15;;;;;;;12.23;11.23;;;24.20;99.90;;;;;;5033566;28;20901;-70
2023/08/20 06:00:41;;;;;;;13.33;12.03;;;24.40;99.90;;;;;;5022967;28;20175;-71
2023/08/20 06:03:07;;;;;;;13.20;11.90;;;24.50;99.90;;;;;;5013933;28;20242;-71
2023/08/20 06:05:33;;;;;;;12.80;11.70;;;24.70;99.90;;;;;;5027033;28;20430;-71
2023/08/20 06:07:59;;;;;;;11.77;10.70;;;24.80;99.90;;;;;;5033763;28;20249;-71
2023/08/20 06:10:25;;;;;;;12.50;11.20;;;25.10;99.90;;;;;;5025324;28;20418;-71
2023/08/20 06:12:50;;;;;;;11.73;10.50;;;25.30;99.90;;;;;;5014076;28;20215;-70
2023/08/20 06:15:16;;;;;;;13.07;11.33;;;25.30;99.90;;;;;;5013515;28;20667;-70
2023/08/20 06:17:41;;;;;;;12.77;11.57;;;25.20;99.90;;;;;;5013741;28;20180;-72
2023/08/20 06:20:08;;;;;;;11.63;10.60;;;25.50;99.90;;;;;;5019148;28;20195;-71
2023/08/20 06:22:34;;;;;;;12.77;11.50;;;25.70;99.90;;;;;;5033431;28;20182;-71
2023/08/20 06:25:00;;;;;;;14.17;12.67;;;25.90;99.90;;;;;;5032755;28;20492;-72
2023/08/20 06:27:26;;;;;;;12.83;11.80;;;25.90;99.90;;;;;;5033194;28;20433;-73
2023/08/20 06:29:51;;;;;;;12.93;11.67;;;26.00;99.90;;;;;;5029352;28;20635;-71
2023/08/20 06:32:17;;;;;;;13.33;11.93;;;26.00;99.90;;;;;;5012422;28;20302;-71
2023/08/20 06:34:42;;;;;;;12.67;11.57;;;26.00;99.90;;;;;;5013348;28;20196;-72
2023/08/20 06:37:08;;;;;;;14.60;13.30;;;25.80;99.90;;;;;;5013126;28;20662;-71
2023/08/20 06:39:34;;;;;;;13.10;10.67;;;25.50;99.90;;;;;;5013758;28;20195;-71
2023/08/20 06:42:00;;;;;;;12.40;11.30;;;25.70;99.90;;;;;;5033588;28;20509;-72
2023/08/20 06:44:25;;;;;;;11.70;10.60;;;25.90;99.90;;;;;;5031371;28;20568;-71
2023/08/20 06:46:51;;;;;;;11.53;10.60;;;26.20;99.90;;;;;;5033047;28;20175;-71
2023/08/20 06:49:17;;;;;;;12.23;11.13;;;26.40;99.90;;;;;;5015386;28;20167;-71
2023/08/20 06:51:42;;;;;;;13.27;12.17;;;26.60;99.90;;;;;;5030771;28;20217;-71
2023/08/20 06:54:08;;;;;;;12.77;11.47;;;26.60;99.90;;;;;;5032636;28;20192;-72
2023/08/20 06:56:33;;;;;;;12.20;11.00;;;26.70;99.90;;;;;;5033222;28;20180;-71
2023/08/20 06:59:00;;;;;;;12.30;11.30;;;26.90;99.90;;;;;;5032795;28;20203;-72
2023/08/20 07:01:26;;;;;;;15.47;13.10;;;26.70;99.90;;;;;;5016817;28;20180;-71
2023/08/20 07:03:51;;;;;;;13.03;11.90;;;26.80;99.90;;;;;;5012690;28;20423;-71
2023/08/20 07:06:18;;;;;;;12.97;11.77;;;26.60;99.90;;;;;;5013273;28;20172;-71
2023/08/20 07:08:44;;;;;;;12.57;11.47;;;26.70;99.90;;;;;;5012942;28;20180;-71
2023/08/20 07:11:09;;;;;;;12.60;11.27;;;26.70;99.90;;;;;;5026364;28;20410;-70
2023/08/20 07:13:35;;;;;;;13.63;12.53;;;26.90;99.90;;;;;;5032521;28;20171;-71
2023/08/20 07:16:01;;;;;;;13.40;12.10;;;26.90;99.90;;;;;;5032650;28;20297;-73
2023/08/20 07:18:27;;;;;;;13.27;11.77;;;26.70;99.90;;;;;;5022121;28;20453;-71
2023/08/20 07:20:52;;;;;;;15.90;12.00;;;26.90;99.90;;;;;;5023798;28;20372;-71
2023/08/20 07:23:18;;;;;;;13.87;12.77;;;26.80;99.90;;;;;;5032386;28;20644;-72
2023/08/20 07:25:44;;;;;;;11.60;10.47;;;26.80;99.90;;;;;;5031939;28;20210;-71
2023/08/20 07:28:11;;;;;;;12.53;11.23;;;26.90;99.90;;;;;;5032477;28;20175;-72
2023/08/20 07:30:36;;;;;;;11.97;10.70;;;27.20;99.90;;;;;;5021629;28;20403;-72
2023/08/20 07:33:03;;;;;;;13.53;12.27;;;27.30;99.90;;;;;;5012608;28;20780;-72
2023/08/20 07:35:29;;;;;;;11.97;10.83;;;27.40;99.90;;;;;;5012551;28;20280;-71
2023/08/20 07:37:54;;;;;;;13.07;12.07;;;26.90;99.90;;;;;;5012876;28;20430;-71
2023/08/20 07:40:20;;;;;;;11.90;10.90;;;26.70;99.90;;;;;;5018638;28;20622;-71
2023/08/20 07:42:45;;;;;;;13.43;11.63;;;26.90;99.90;;;;;;5032633;28;20313;-73
2023/08/20 07:45:11;;;;;;;13.60;12.30;;;27.20;99.90;;;;;;5032376;28;20175;-72
2023/08/20 07:47:37;;;;;;;14.10;12.83;;;26.90;99.90;;;;;;5028678;28;20183;-71
2023/08/20 07:50:06;;;;;;;11.70;10.70;;;26.60;99.90;;;;;;5016682;28;20172;-72
2023/08/20 07:52:32;;;;;;;14.10;12.80;;;26.60;99.90;;;;;;5032671;28;20410;-72
2023/08/20 07:54:58;;;;;;;13.83;12.63;;;27.10;99.90;;;;;;5032334;28;20434;-72
2023/08/20 07:57:24;;;;;;;13.13;11.73;;;27.20;99.90;;;;;;5032638;28;20773;-72
2023/08/20 07:59:50;;;;;;;13.20;11.47;;;27.00;99.90;;;;;;5030593;28;20449;-72
2023/08/20 08:02:16;;;;;;;12.63;11.47;;;27.20;99.90;;;;;;5012948;28;20578;-71
2023/08/20 08:04:42;;;;;;;13.37;12.07;;;27.40;99.90;;;;;;5015687;28;20422;-71
2023/08/20 08:07:09;;;;;;;15.33;13.53;;;27.50;99.90;;;;;;5016728;28;20168;-71
2023/08/20 08:09:34;;;;;;;15.40;14.00;;;27.70;99.90;;;;;;5016241;28;20417;-71
2023/08/20 08:12:01;;;;;;;14.50;13.20;;;27.70;99.90;;;;;;5035857;28;20505;-72
2023/08/20 08:14:27;;;;;;;12.60;11.50;;;27.70;99.90;;;;;;5032735;28;20567;-71
2023/08/20 08:16:52;;;;;;;15.50;14.17;;;27.50;99.90;;;;;;5016594;28;20418;-71
2023/08/20 08:19:19;;;;;;;18.80;12.63;;;27.60;99.90;;;;;;5015172;28;20195;-71
2023/08/20 08:21:45;;;;;;;15.63;13.87;;;27.60;99.90;;;;;;5033495;28;20209;-71
2023/08/20 08:24:11;;;;;;;11.63;10.70;;;27.70;99.90;;;;;;5036087;28;20835;-72
2023/08/20 08:26:37;;;;;;;14.03;12.73;;;27.90;99.90;;;;;;5036132;28;20250;-72
2023/08/20 08:29:03;;;;;;;12.47;11.30;;;27.60;99.90;;;;;;5035034;28;20167;-71
2023/08/20 08:31:29;;;;;;;12.30;11.30;;;27.70;99.90;;;;;;5020758;28;20168;-72
2023/08/20 08:33:54;;;;;;;14.17;12.83;;;28.00;99.90;;;;;;5015376;28;20426;-72
2023/08/20 08:36:20;;;;;;;13.37;12.10;;;27.70;99.90;;;;;;5015849;28;20203;-71
2023/08/20 08:38:46;;;;;;;14.93;13.43;;;27.90;99.90;;;;;;5016016;28;20214;-71
2023/08/20 08:41:12;;;;;;;13.50;12.27;;;27.60;99.90;;;;;;5028158;28;20167;-71
2023/08/20 08:43:39;;;;;;;13.83;12.70;;;27.60;99.90;;;;;;5035898;28;20175;-71
2023/08/20 08:46:14;;;;;;;13.47;12.27;;;27.80;99.90;;;;;;5035820;28;20836;-71
2023/08/20 08:48:42;;;;;;;13.60;12.30;;;28.20;99.90;;;;;;5018936;28;20418;-71
2023/08/20 08:51:08;;;;;;;15.23;12.37;;;28.20;99.90;;;;;;5027735;28;20410;-72
2023/08/20 08:53:34;;;;;;;14.33;13.07;;;28.10;99.90;;;;;;5035737;28;20430;-71
2023/08/20 08:56:00;;;;;;;14.50;13.23;;;28.00;99.90;;;;;;5035362;28;20410;-72
2023/08/20 08:58:26;;;;;;;14.37;13.17;;;27.90;99.90;;;;;;5035558;28;20402;-72
2023/08/20 09:00:52;;;;;;;14.13;12.80;;;27.90;99.90;;;;;;5025671;28;20222;-71
2023/08/20 09:03:18;;;;;;;13.43;12.23;;;27.80;99.90;;;;;;5015250;28;20658;-70
2023/08/20 09:05:48;;;;;;;14.20;12.73;;;28.10;99.90;;;;;;5015618;28;20423;-71
2023/08/20 09:08:32;;;;;;;13.53;12.27;;;28.40;99.90;;;;;;5015647;28;20172;-71
2023/08/20 09:10:59;;;;;;;13.17;12.17;;;28.60;99.90;;;;;;5025397;28;20419;-71
2023/08/20 09:13:32;;;;;;;14.00;12.90;;;28.30;99.90;;;;;;5034555;28;20403;-71
2023/08/20 09:15:58;;;;;;;14.50;13.07;;;28.20;99.90;;;;;;5035804;28;20382;-71
2023/08/20 09:18:23;;;;;;;13.90;12.80;;;28.20;99.90;;;;;;5021210;28;20411;-72
2023/08/20 09:20:49;;;;;;;14.07;12.77;;;28.40;99.90;;;;;;5023938;28;20398;-71
2023/08/20 09:23:15;;;;;;;13.77;12.60;;;28.60;99.90;;;;;;5034918;28;20174;-72
2023/08/20 09:25:42;;;;;;;13.57;12.47;;;28.80;99.90;;;;;;5034321;28;20234;-71
2023/08/20 09:28:08;;;;;;;14.73;13.50;;;28.80;99.90;;;;;;5031625;28;20222;-71
2023/08/20 09:30:34;;;;;;;14.20;12.90;;;29.00;99.90;;;;;;5028359;28;20427;-71
2023/08/20 09:33:15;;;;;;;14.80;13.33;;;29.10;99.90;;;;;;5014686;28;20172;-71
2023/08/20 09:35:51;;;;;;;13.13;12.13;;;29.20;99.90;;;;;;5014776;28;20429;-71
2023/08/20 09:38:21;;;;;;;13.37;12.17;;;29.10;99.90;;;;;;5016739;28;20943;-72
2023/08/20 09:40:49;;;;;;;13.40;12.10;;;29.00;99.90;;;;;;5034330;28;20406;-72
2023/08/20 09:43:16;;;;;;;14.30;12.80;;;29.00;99.90;;;;;;5034496;28;20951;-71
2023/08/20 09:45:43;;;;;;;12.83;11.63;;;29.10;99.90;;;;;;5034324;28;20426;-72
2023/08/20 09:48:11;;;;;;;14.17;13.07;;;29.10;99.90;;;;;;5023687;28;20419;-72
2023/08/20 09:50:39;;;;;;;12.83;11.63;;;29.00;99.90;;;;;;5034278;28;20409;-73
2023/08/20 09:53:12;;;;;;;12.23;11.13;;;28.90;99.90;;;;;;5034362;28;20429;-72
2023/08/20 09:55:41;;;;;;;12.10;10.90;;;29.00;99.90;;;;;;5033910;28;20839;-72
2023/08/20 09:58:07;;;;;;;12.27;11.07;;;29.30;99.90;;;;;;5033197;28;20437;-72
2023/08/20 10:00:33;;;;;;;13.33;11.70;;;29.70;99.90;;;;;;5014482;28;20454;-72
2023/08/20 10:02:59;;;;;;;11.90;10.93;;;29.80;99.90;;;;;;5014014;28;20774;-72
2023/08/20 10:05:25;;;;;;;12.00;10.77;;;29.50;99.90;;;;;;5014162;28;20195;-72
2023/08/20 10:07:54;;;;;;;11.43;10.47;;;29.60;99.90;;;;;;5014243;28;20407;-72
2023/08/20 10:10:20;;;;;;;12.13;11.07;;;29.80;99.90;;;;;;5032724;28;20178;-71
2023/08/20 10:12:46;;;;;;;11.43;10.07;;;29.90;99.90;;;;;;5033866;28;20485;-72
2023/08/20 10:15:13;;;;;;;11.17;10.07;;;30.10;99.90;;;;;;5034029;28;20513;-71
2023/08/20 10:17:41;;;;;;;13.77;11.80;;;30.50;99.90;;;;;;5026628;28;20168;-71
2023/08/20 10:20:08;;;;;;;12.30;11.03;;;30.10;99.90;;;;;;5022422;28;21043;-72
2023/08/20 10:22:45;;;;;;;11.27;10.17;;;30.20;99.90;;;;;;5014111;28;20433;-70
2023/08/20 10:25:31;;;;;;;12.23;11.13;;;30.30;99.90;;;;;;5013245;28;21045;-71
2023/08/20 10:28:20;;;;;;;11.40;10.50;;;30.40;99.90;;;;;;5013617;28;20414;-72
2023/08/20 10:31:16;;;;;;;10.83;9.93;;;30.70;99.90;;;;;;4994514;28;20723;-71
2023/08/20 10:33:47;;;;;;;11.00;10.10;;;30.30;99.90;;;;;;4989615;28;20438;-72
2023/08/20 10:36:17;;;;;;;12.07;10.67;;;30.30;99.90;;;;;;4994354;28;20415;-72
2023/08/20 10:38:45;;;;;;;11.40;10.23;;;30.50;99.90;;;;;;5004598;28;20477;-71
2023/08/20 10:41:11;;;;;;;10.83;9.73;;;30.70;99.90;;;;;;5019435;28;20426;-71
2023/08/20 10:43:46;;;;;;;10.10;9.20;;;31.00;99.90;;;;;;5013516;28;20779;-71
2023/08/20 10:46:25;;;;;;;14.60;10.27;;;31.20;99.90;;;;;;5013751;28;20627;-73
2023/08/20 10:48:57;;;;;;;10.50;9.40;;;31.30;99.90;;;;;;5019376;28;20410;-71
2023/08/20 10:51:36;;;;;;;11.13;10.13;;;31.40;99.90;;;;;;5033707;28;20432;-72
2023/08/20 10:54:05;;;;;;;10.70;9.80;;;31.20;99.90;;;;;;5033593;28;20532;-72
2023/08/20 10:56:57;;;;;;;9.50;8.70;;;31.70;99.90;;;;;;5025802;28;20426;-72
2023/08/20 10:59:28;;;;;;;10.67;9.60;;;32.70;99.90;;;;;;5013779;28;20442;-72
2023/08/20 11:01:55;;;;;;;9.70;8.90;;;33.70;99.90;;;;;;5013318;28;20815;-72
2023/08/20 11:04:23;;;;;;;9.00;8.10;;;34.60;99.20;;;;;;5013180;28;20419;-72
2023/08/20 11:06:56;;;;;;;9.10;7.50;;;36.00;96.80;;;;;;5021468;28;20485;-72
2023/08/20 11:09:29;;;;;;;9.67;8.87;;;36.60;93.60;;;;;;5032867;28;20418;-71
2023/08/20 11:11:55;;;;;;;9.83;8.70;;;36.50;93.80;;;;;;5033165;28;20405;-72
2023/08/20 11:14:21;;;;;;;9.43;8.53;;;36.50;93.10;;;;;;5033038;28;20429;-72
2023/08/20 11:16:48;;;;;;;10.03;8.93;;;36.20;92.90;;;;;;5025010;28;20414;-72
2023/08/20 11:19:18;;;;;;;8.50;7.70;;;36.30;92.40;;;;;;5011693;28;20465;-71
2023/08/20 11:21:45;;;;;;;9.07;8.17;;;37.10;91.60;;;;;;5013240;28;20403;-72
2023/08/20 11:24:11;;;;;;;9.30;8.50;;;36.90;91.20;;;;;;5013266;28;20844;-72
2023/08/20 11:26:40;;;;;;;8.27;7.60;;;36.80;91.60;;;;;;5019313;28;20429;-71
2023/08/20 11:29:12;;;;;;;9.37;8.57;;;37.30;91.60;;;;;;5028250;28;20175;-72
2023/08/20 11:31:38;;;;;;;8.60;7.90;;;37.90;90.00;;;;;;5032862;28;20414;-72
2023/08/20 11:34:05;;;;;;;9.80;6.97;;;38.00;89.80;;;;;;5032149;28;20428;-72
2023/08/20 11:36:31;;;;;;;11.07;8.30;;;38.60;86.10;;;;;;5027345;28;20906;-72
2023/08/20 11:38:56;;;;;;;8.70;7.90;;;37.60;88.00;;;;;;5016711;28;20462;-72
2023/08/20 11:41:24;;;;;;;8.30;7.70;;;37.20;87.70;;;;;;5016989;28;20889;-72
2023/08/20 11:43:50;;;;;;;7.93;7.23;;;38.20;86.40;;;;;;5016846;28;20192;-72
2023/08/20 11:46:18;;;;;;;7.70;7.00;;;38.90;84.30;;;;;;5020082;28;20427;-72
2023/08/20 11:49:26;;;;;;;8.73;7.93;;;40.60;80.00;;;;;;5025204;28;20472;-72
2023/08/20 11:51:52;;;;;;;7.37;6.70;;;40.60;75.50;;;;;;4995217;28;20415;-71
2023/08/20 11:54:18;;;;;;;8.50;7.80;;;39.80;78.10;;;;;;5013337;28;20453;-71
2023/08/20 11:56:45;;;;;;;8.87;7.67;;;39.40;78.10;;;;;;5023558;28;20163;-72
2023/08/20 11:59:12;;;;;;;7.37;6.77;;;40.10;74.20;;;;;;5036547;28;20484;-72
2023/08/20 12:01:37;;;;;;;7.27;6.17;;;40.90;72.60;;;;;;5036475;28;20405;-71
2023/08/20 12:04:04;;;;;;;8.33;6.90;;;40.30;72.70;;;;;;5035736;28;20479;-71
2023/08/20 12:06:31;;;;;;;7.07;6.47;;;41.70;69.10;;;;;;5031483;28;20199;-72
2023/08/20 12:08:57;;;;;;;7.97;7.27;;;40.80;69.70;;;;;;5016903;28;20413;-73
2023/08/20 12:11:30;;;;;;;6.83;6.23;;;39.60;71.60;;;;;;5016374;28;20413;-72
2023/08/20 12:13:55;;;;;;;7.60;6.90;;;40.90;69.50;;;;;;5016515;28;20430;-72
2023/08/20 12:16:24;;;;;;;8.30;6.80;;;40.20;69.70;;;;;;5019693;28;20397;-72
2023/08/20 12:18:51;;;;;;;8.90;8.07;;;38.00;74.00;;;;;;5028132;28;20202;-73
2023/08/20 12:21:17;;;;;;;7.20;6.60;;;38.20;75.10;;;;;;5036033;28;20456;-72
2023/08/20 12:23:42;;;;;;;8.27;7.40;;;39.80;73.20;;;;;;5036016;28;20437;-72
2023/08/20 12:26:08;;;;;;;7.43;6.53;;;39.90;70.00;;;;;;5034325;28;20155;-72
2023/08/20 12:28:34;;;;;;;6.80;6.20;;;39.80;71.50;;;;;;5016058;28;20199;-72
2023/08/20 12:31:00;;;;;;;8.10;6.33;;;39.90;69.90;;;;;;5015984;28;20174;-72